Scottsville, KY

6:45 AM CST on January 29, 2015 (GMT -0600)
Bowling Green-Warren County Regional | Change Station
CLOSE
Current Station
Airport
Location: Bowling Green,
Elevation: 548 ft
Nearby Weather Stations

Elev 548 ft 36.96 °N, 86.42 °W | Updated 52 minutes ago

Mostly Cloudy
Mostly Cloudy
47 °F
Feels Like 47 °F
N
21
Wind Variable Wind from South
Gusts 29 mph

Today
High -- | Low -- °F
--% Chance of Precip.
Yesterday
High -- | Low -- °F
Precip. -- in
6:49 AM 5:06 PM
Waxing Gibbous, 74% visible
Pressure 29.97 in
Visibility 10.0 miles
Clouds Overcast 9000 ft
Dew Point 32 °F
Humidity 56%
Rainfall 0.01 in
Snow Depth Not available.
UV 0 out of 12
Pollen .30 out of 12
Air Quality Not available.
Flu Activity Not available.
METAR KBWG 291153Z AUTO 19018G25KT 10SM OVC090 08/00 A2997 RMK AO2 RAE31 SLP148 P0000 60001 70001 T00830000 10089 20017 58027

More Conditions Fewer Conditions

Pressure 29.97 in
Visibility 10.0 miles
Clouds Overcast 9000 ft
Dew Point 32 °F
Humidity 56%
Rainfall 0.01 in
Snow Depth Not available.
UV 0 out of 12
Pollen .30 out of 12
Air Quality Not available.
Flu Activity Not available.
METAR KBWG 291153Z AUTO 19018G25KT 10SM OVC090 08/00 A2997 RMK AO2 RAE31 SLP148 P0000 60001 70001 T00830000 10089 20017 58027

More Conditions Fewer Conditions

10-Day Weather Forecast

Almanac

Astronomy

Jan. 29, 2015 Rise Set
Actual Time
Civil Twilight
Nautical Twilight
Astronomical Twilight
Moon
Length of Visible Light
Length of Day
Tomorrow will be .
, % of the Moon is Illuminated

Today's Extremes

State Highs State Lows

Community

WunderPhotos

Upload Photos

1,791,420 photos uploaded!

WunderBlogs® & News

Nearby

Air Quality

  Air Quality AQ Index Pollutant
Not available.

Snow Depth

Station Depth Elevation

Earthquake Activity

City Distance Mag. Time & Date
Minimum magnitude displayed is 2.5.

Coastal Water Temperatures

Place Temperature

Nearby Weather Stations